Arcadia, Michigan
Current Conditions -  °F | °C
As of 8:53 AM on Thursday 27 Nov 2014 (Local Time) from KFKS Reporting Station
Light Snow Light Snow  
Wind Chill: 15°   Ceiling: 1600
Heat Index: 25°   Visibility: 2.5mi
Dew Point: 22°   Wind: 12mph
Humidity: 86%   Direction: 360°N
Pressure: 30.21"   Gusts: 17mph
Location:  44.49°N, 86.23°W
Report Text: KFKS 271353Z AUTO 36010G15KT 2 1/2SM -SN SCT006 BKN016 OVC023 M04/M06 A3021 RMK AO2 T10371058
Loading
Personal Weather Stations






























Interactive Weather Map New forecast layout! Learn more

10-Day Weather Forecast

Advertisements
Track Severe Weather on mobile